メインページ
METAR-TAF:

METAR-TAF

空港 :

成都, 中華人民共和国

成都双流国際空港

緯度: 30-40N, 経度: 104-01E, 海抜: 508m

現時点の気象観測

当レポートは1時間3分前の04:00(UTC)に作成
西の風 4kt、西/南西から北西の間で変化する
気温 18°C
湿度 94%
気圧 1022 hPa
視程: 3300m
高度4000ftの雲は散在している

METAR: ZUUU 210400Z 27002MPS 240V320 3300 BR SCT040 18/17 Q1022 NOSIG

時間: 13:03 (05:03 UTC)

予報

当レポートは8時間49分前の20:14(UTC)に作成
予報は21日の 00時(UTC)から 21日の 24時(UTC)まで有効
北/北東の風 6kt
視程: 2700m
高度4000ftの雲は散在している
21日の 02時(UTC)から 21日の 03時(UTC)まで徐々に
視程: 3500m
21日の 00時(UTC)から 21日の 04時(UTC)まで一時的に
小雨

TAF: ZUUU 202014Z 2100/2124 02003MPS 2700 BR SCT040 TX19/2107Z TN15/2123Z BECMG 2102/2103 3500 TEMPO 2100/2104 -RA

4,000以上の空港の気象観測と天気予報(METAR報とTAF報)

利用可能な観測所は地図上に黄色い丸と赤い丸で示す。

丸の上にカーソルを重ねると観測所名を参照できる。

次にクリックすると気象観測と天気予報を参照できる。

マップの切り替え:黒色「×」印の緑ボタンをクリックして拡大、「-」印の緑ボタンをクリックして縮小、緑色の三角印をクリックして隣りの地図に切り替え


METAR-TAF: